首页
METAR-TAF:

METAR-TAF

机场 :

日内瓦, 瑞士

日内瓦国际机场

纬度: 46-15N, 经度: 006-08E, 海拔: 420米

当前天气观测

该预报发布于22分钟前的01:20 UTC
风速8节,风向西南,在南转西南西之间变化
温度 7°C
湿度 93%
气压 1013 hPa
能见度10公里或以上
少量云层高于3200英尺
多云层高于3900英尺
小毛毛雨

METAR: LSGG 190120Z AUTO 23008KT 200V270 9999 -DZ FEW032 BKN039 07/06 Q1013 NOSIG

时间: 02:42 (01:42 UTC)

预报

该预报发布于2小时和17分钟前的23:25 UTC
预报有效从19日的 00点(UTC)到 20日的 06点(UTC)
风速10节,风向西南
能见度10公里或以上
少量云层高于1000英尺
多云层高于2500英尺
小阵雨
短暂存在
从 19日的 12点(UTC)到 19日的 22点(UTC)
风速15节,风向西南,有时为25节阵风
散云层高于3500英尺, 塔状积云.
阵雨
几率 30% :
短暂存在
从 19日的 21点(UTC)到 20日的 06点(UTC)
能見度: 4500
阵雨, 雪

TAF: LSGG 182325Z 1900/2006 23010KT 9999 -SHRA FEW010 BKN025 TX06/1914Z TN04/1905Z TN02/2005Z TEMPO 1912/1922 23015G25KT SHRA SCT035TCU PROB30 TEMPO 1921/2006 4500 SHRASN

超过4000个机场的气象观测和天气预报(METAR&TAF报告)。

可查询的气象台以黄色和红色小点在地图上表示。

将鼠标移到小点上方,可查看气象台名称。

然后点击查看天气观测和预报。

如需切换地图:点击带黑十字的绿色按钮放大地图;点击带横线的绿色按钮缩小地图;或者点击绿色箭头查看邻近地区的地图。


METAR-TAF: